Time;durP1;ratioP1;P1;durP2;ratioP2;P2;SDS_P1;SDS_P2;PMS_P1;PMS_P2;Temp;Humidity;BMP_temperature;BMP_pressure;BME280_temperature;BME280_humidity;BME280_pressure;Samples;Min_cycle;Max_cycle;Signal;HPM_P1;HPM_P2
2022/05/21 00:00:00;;;;;;;0.6;0.6;;;;;;;12.7;100.0;101690;;;;
2022/05/21 00:01:02;;;;;;;0.6;0.6;;;;;;;12.8;100.0;101690;;;;
2022/05/21 00:02:00;;;;;;;0.6;0.6;;;;;;;12.8;100.0;101690;;;;
2022/05/21 00:03:00;;;;;;;0.6;0.6;;;;;;;12.7;100.0;101690;;;;
2022/05/21 00:04:00;;;;;;;0.6;0.6;;;;;;;12.7;100.0;101690;;;;
2022/05/21 00:05:00;;;;;;;0.6;0.6;;;;;;;12.7;100.0;101690;;;;
2022/05/21 00:06:06;;;;;;;0.6;0.6;;;;;;;12.7;100.0;101690;;;;
2022/05/21 00:07:00;;;;;;;0.6;0.6;;;;;;;12.7;100.0;101690;;;;
2022/05/21 00:08:00;;;;;;;0.6;0.6;;;;;;;12.7;100.0;101690;;;;
2022/05/21 00:09:00;;;;;;;0.6;0.6;;;;;;;12.7;100.0;101690;;;;
2022/05/21 00:10:00;;;;;;;0.6;0.6;;;;;;;12.7;100.0;101690;;;;
2022/05/21 00:11:00;;;;;;;0.6;0.6;;;;;;;12.7;100.0;101690;;;;
2022/05/21 00:12:00;;;;;;;0.6;0.6;;;;;;;12.7;100.0;101690;;;;
2022/05/21 00:13:01;;;;;;;0.6;0.6;;;;;;;12.8;100.0;101690;;;;
2022/05/21 00:14:00;;;;;;;0.6;0.6;;;;;;;12.8;100.0;101690;;;;
2022/05/21 00:15:00;;;;;;;0.6;0.6;;;;;;;12.8;100.0;101690;;;;
2022/05/21 00:16:00;;;;;;;0.8;0.8;;;;;;;12.8;100.0;101690;;;;
2022/05/21 00:17:00;;;;;;;0.8;0.8;;;;;;;12.9;100.0;101690;;;;
2022/05/21 00:18:00;;;;;;;0.8;0.8;;;;;;;12.9;100.0;101690;;;;
2022/05/21 00:19:00;;;;;;;0.8;0.8;;;;;;;12.8;100.0;101690;;;;
2022/05/21 00:20:00;;;;;;;0.8;0.8;;;;;;;12.8;100.0;101690;;;;
2022/05/21 00:21:00;;;;;;;0.8;0.8;;;;;;;12.7;100.0;101690;;;;
2022/05/21 00:22:00;;;;;;;0.8;0.8;;;;;;;12.7;100.0;101690;;;;
2022/05/21 00:23:07;;;;;;;0.8;0.8;;;;;;;12.8;100.0;101680;;;;
2022/05/21 00:24:00;;;;;;;0.8;0.8;;;;;;;12.8;100.0;101680;;;;
2022/05/21 00:25:00;;;;;;;0.8;0.8;;;;;;;12.8;100.0;101690;;;;
2022/05/21 00:26:03;;;;;;;0.8;0.8;;;;;;;12.8;100.0;101690;;;;
2022/05/21 00:27:00;;;;;;;0.8;0.8;;;;;;;12.9;100.0;101690;;;;
2022/05/21 00:28:00;;;;;;;0.8;0.8;;;;;;;12.9;100.0;101690;;;;
2022/05/21 00:29:00;;;;;;;0.8;0.8;;;;;;;12.9;100.0;101690;;;;
2022/05/21 00:30:00;;;;;;;0.8;0.8;;;;;;;12.9;100.0;101690;;;;
2022/05/21 00:31:00;;;;;;;0.8;0.8;;;;;;;13.0;100.0;101690;;;;
2022/05/21 00:32:00;;;;;;;0.8;0.8;;;;;;;13.0;100.0;101690;;;;
2022/05/21 00:33:00;;;;;;;0.8;0.8;;;;;;;13.0;100.0;101690;;;;
2022/05/21 00:34:00;;;;;;;0.8;0.8;;;;;;;13.0;100.0;101690;;;;
2022/05/21 00:35:00;;;;;;;0.8;0.8;;;;;;;13.0;100.0;101690;;;;
2022/05/21 00:36:00;;;;;;;0.6;0.6;;;;;;;13.0;100.0;101690;;;;
2022/05/21 00:37:00;;;;;;;0.6;0.6;;;;;;;12.8;100.0;101690;;;;
2022/05/21 00:38:00;;;;;;;0.6;0.6;;;;;;;12.8;100.0;101690;;;;
2022/05/21 00:39:00;;;;;;;0.6;0.6;;;;;;;12.9;100.0;101690;;;;
2022/05/21 00:40:00;;;;;;;0.6;0.6;;;;;;;12.9;100.0;101690;;;;
2022/05/21 00:41:00;;;;;;;0.6;0.6;;;;;;;12.9;100.0;101680;;;;
2022/05/21 00:42:04;;;;;;;0.6;0.6;;;;;;;12.9;100.0;101680;;;;
2022/05/21 00:43:00;;;;;;;0.6;0.6;;;;;;;13.0;100.0;101690;;;;
2022/05/21 00:44:02;;;;;;;0.6;0.6;;;;;;;13.0;100.0;101690;;;;
2022/05/21 00:45:00;;;;;;;0.6;0.6;;;;;;;13.0;100.0;101690;;;;
2022/05/21 00:46:00;;;;;;;0.6;0.6;;;;;;;13.0;100.0;101690;;;;
2022/05/21 00:47:00;;;;;;;0.6;0.6;;;;;;;13.0;100.0;101690;;;;
2022/05/21 00:48:00;;;;;;;0.6;0.6;;;;;;;13.0;100.0;101690;;;;
2022/05/21 00:49:06;;;;;;;0.6;0.6;;;;;;;13.1;100.0;101690;;;;
2022/05/21 00:50:00;;;;;;;0.6;0.6;;;;;;;13.1;100.0;101690;;;;
2022/05/21 00:51:00;;;;;;;0.6;0.6;;;;;;;12.9;100.0;101690;;;;
2022/05/21 00:52:07;;;;;;;0.6;0.6;;;;;;;12.9;100.0;101690;;;;
2022/05/21 00:53:00;;;;;;;0.6;0.6;;;;;;;12.9;100.0;101680;;;;
2022/05/21 00:54:01;;;;;;;0.6;0.6;;;;;;;12.9;100.0;101680;;;;
2022/05/21 00:55:04;;;;;;;0.6;0.6;;;;;;;12.9;100.0;101690;;;;
2022/05/21 00:56:00;;;;;;;0.5;0.5;;;;;;;12.9;100.0;101690;;;;
2022/05/21 00:57:03;;;;;;;0.5;0.5;;;;;;;13.1;100.0;101690;;;;
2022/05/21 01:00:05;;;;;;;0.5;0.5;;;;;;;13.1;100.0;101690;;;;
2022/05/21 01:01:00;;;;;;;0.5;0.5;;;;;;;13.1;100.0;101690;;;;
2022/05/21 01:02:02;;;;;;;0.5;0.5;;;;;;;13.1;100.0;101690;;;;
2022/05/21 01:03:00;;;;;;;0.5;0.5;;;;;;;13.2;100.0;101700;;;;
2022/05/21 01:04:00;;;;;;;0.5;0.5;;;;;;;13.2;100.0;101700;;;;
2022/05/21 01:05:02;;;;;;;0.5;0.5;;;;;;;13.1;100.0;101700;;;;
2022/05/21 01:06:03;;;;;;;0.5;0.5;;;;;;;13.1;100.0;101700;;;;
2022/05/21 01:07:01;;;;;;;0.5;0.5;;;;;;;13.0;100.0;101700;;;;
2022/05/21 01:08:01;;;;;;;0.5;0.5;;;;;;;13.0;100.0;101700;;;;
2022/05/21 01:09:00;;;;;;;0.5;0.5;;;;;;;13.0;100.0;101700;;;;
2022/05/21 01:10:00;;;;;;;0.5;0.5;;;;;;;13.0;100.0;101700;;;;
2022/05/21 01:11:02;;;;;;;0.5;0.5;;;;;;;13.0;100.0;101690;;;;
2022/05/21 01:12:03;;;;;;;0.5;0.5;;;;;;;13.0;100.0;101690;;;;
2022/05/21 01:13:00;;;;;;;0.5;0.5;;;;;;;13.1;100.0;101700;;;;
2022/05/21 01:14:01;;;;;;;0.5;0.5;;;;;;;13.1;100.0;101700;;;;
2022/05/21 01:15:01;;;;;;;0.5;0.5;;;;;;;13.2;100.0;101700;;;;
2022/05/21 01:16:00;;;;;;;0.5;0.5;;;;;;;13.2;100.0;101700;;;;
2022/05/21 01:17:01;;;;;;;0.5;0.5;;;;;;;13.1;100.0;101700;;;;
2022/05/21 01:18:00;;;;;;;0.5;0.5;;;;;;;13.1;100.0;101700;;;;
2022/05/21 01:19:04;;;;;;;0.5;0.5;;;;;;;13.1;100.0;101700;;;;
2022/05/21 01:20:03;;;;;;;0.5;0.5;;;;;;;13.1;100.0;101700;;;;
2022/05/21 01:21:00;;;;;;;0.5;0.5;;;;;;;13.2;100.0;101700;;;;
2022/05/21 01:22:00;;;;;;;0.5;0.5;;;;;;;13.2;100.0;101700;;;;
2022/05/21 01:23:00;;;;;;;0.5;0.5;;;;;;;13.2;100.0;101700;;;;
2022/05/21 01:24:00;;;;;;;0.5;0.5;;;;;;;13.2;100.0;101700;;;;
2022/05/21 01:25:00;;;;;;;0.5;0.5;;;;;;;13.3;100.0;101700;;;;
2022/05/21 01:26:01;;;;;;;0.5;0.5;;;;;;;13.3;100.0;101700;;;;
2022/05/21 01:27:00;;;;;;;0.5;0.5;;;;;;;13.3;100.0;101700;;;;
2022/05/21 01:28:01;;;;;;;0.5;0.5;;;;;;;13.3;100.0;101700;;;;
2022/05/21 01:29:02;;;;;;;0.5;0.5;;;;;;;13.2;100.0;101700;;;;
2022/05/21 01:30:02;;;;;;;0.5;0.5;;;;;;;13.2;100.0;101700;;;;
2022/05/21 01:31:01;;;;;;;0.5;0.5;;;;;;;13.3;100.0;101690;;;;
2022/05/21 01:32:00;;;;;;;0.5;0.5;;;;;;;13.3;100.0;101690;;;;
2022/05/21 01:33:09;;;;;;;0.5;0.5;;;;;;;13.3;100.0;101690;;;;
2022/05/21 01:34:00;;;;;;;0.5;0.5;;;;;;;13.3;100.0;101690;;;;
2022/05/21 01:35:00;;;;;;;0.5;0.5;;;;;;;13.2;100.0;101690;;;;
2022/05/21 01:36:00;;;;;;;0.5;0.5;;;;;;;13.2;100.0;101690;;;;
2022/05/21 01:37:00;;;;;;;0.5;0.5;;;;;;;13.2;100.0;101690;;;;
2022/05/21 01:38:00;;;;;;;0.5;0.5;;;;;;;13.2;100.0;101690;;;;
2022/05/21 01:39:00;;;;;;;0.5;0.5;;;;;;;13.2;100.0;101690;;;;
2022/05/21 01:40:00;;;;;;;0.5;0.5;;;;;;;13.2;100.0;101690;;;;
2022/05/21 01:41:00;;;;;;;0.5;0.5;;;;;;;13.2;100.0;101690;;;;
2022/05/21 01:42:00;;;;;;;0.5;0.5;;;;;;;13.2;100.0;101690;;;;
2022/05/21 01:45:00;;;;;;;0.5;0.5;;;;;;;13.2;100.0;101690;;;;
2022/05/21 01:46:00;;;;;;;0.5;0.5;;;;;;;13.2;100.0;101690;;;;
2022/05/21 01:47:00;;;;;;;0.5;0.5;;;;;;;13.2;100.0;101690;;;;
2022/05/21 01:48:02;;;;;;;0.5;0.5;;;;;;;13.2;100.0;101690;;;;
2022/05/21 01:49:00;;;;;;;0.5;0.5;;;;;;;13.1;100.0;101690;;;;
2022/05/21 01:50:00;;;;;;;0.5;0.5;;;;;;;13.1;100.0;101690;;;;
2022/05/21 01:51:00;;;;;;;0.5;0.5;;;;;;;13.3;100.0;101690;;;;
2022/05/21 01:52:00;;;;;;;0.5;0.5;;;;;;;13.3;100.0;101690;;;;
2022/05/21 01:53:00;;;;;;;0.5;0.5;;;;;;;13.2;100.0;101690;;;;
2022/05/21 01:54:00;;;;;;;0.5;0.5;;;;;;;13.2;100.0;101690;;;;
2022/05/21 01:55:00;;;;;;;0.5;0.5;;;;;;;13.3;100.0;101690;;;;
2022/05/21 01:56:00;;;;;;;0.5;0.5;;;;;;;13.3;100.0;101690;;;;
2022/05/21 01:57:00;;;;;;;0.5;0.5;;;;;;;13.3;100.0;101690;;;;
2022/05/21 01:58:00;;;;;;;0.5;0.5;;;;;;;13.3;100.0;101690;;;;
2022/05/21 01:59:00;;;;;;;0.5;0.5;;;;;;;13.2;100.0;101690;;;;
2022/05/21 02:00:00;;;;;;;0.5;0.5;;;;;;;13.2;100.0;101690;;;;
2022/05/21 02:01:00;;;;;;;0.5;0.5;;;;;;;13.3;100.0;101690;;;;
2022/05/21 02:02:00;;;;;;;0.5;0.5;;;;;;;13.3;100.0;101690;;;;
2022/05/21 02:03:00;;;;;;;0.5;0.5;;;;;;;13.4;100.0;101690;;;;
2022/05/21 02:04:00;;;;;;;0.5;0.5;;;;;;;13.4;100.0;101690;;;;
2022/05/21 02:05:00;;;;;;;0.5;0.5;;;;;;;13.3;100.0;101690;;;;
2022/05/21 02:06:00;;;;;;;0.5;0.5;;;;;;;13.3;100.0;101690;;;;
2022/05/21 02:07:00;;;;;;;0.5;0.5;;;;;;;13.3;100.0;101690;;;;
2022/05/21 02:08:00;;;;;;;0.5;0.5;;;;;;;13.3;100.0;101690;;;;
2022/05/21 02:09:00;;;;;;;0.5;0.5;;;;;;;13.3;100.0;101690;;;;
2022/05/21 02:10:00;;;;;;;0.5;0.5;;;;;;;13.3;100.0;101690;;;;
2022/05/21 02:11:00;;;;;;;0.5;0.5;;;;;;;13.4;100.0;101690;;;;
2022/05/21 02:12:00;;;;;;;0.5;0.5;;;;;;;13.4;100.0;101690;;;;
2022/05/21 02:13:02;;;;;;;0.5;0.5;;;;;;;13.3;100.0;101690;;;;
2022/05/21 02:14:00;;;;;;;0.5;0.5;;;;;;;13.3;100.0;101690;;;;
2022/05/21 02:15:00;;;;;;;0.5;0.5;;;;;;;13.2;100.0;101690;;;;
2022/05/21 02:16:00;;;;;;;0.5;0.5;;;;;;;13.2;100.0;101690;;;;
2022/05/21 02:17:00;;;;;;;0.5;0.5;;;;;;;13.3;100.0;101690;;;;
2022/05/21 02:18:00;;;;;;;0.5;0.5;;;;;;;13.3;100.0;101690;;;;
2022/05/21 02:19:01;;;;;;;0.5;0.5;;;;;;;13.3;100.0;101690;;;;
2022/05/21 02:20:00;;;;;;;0.5;0.5;;;;;;;13.3;100.0;101690;;;;
2022/05/21 02:21:00;;;;;;;0.5;0.5;;;;;;;13.2;100.0;101690;;;;
2022/05/21 02:22:00;;;;;;;0.5;0.5;;;;;;;13.2;100.0;101690;;;;
2022/05/21 02:23:00;;;;;;;0.5;0.5;;;;;;;13.2;100.0;101700;;;;
2022/05/21 02:24:00;;;;;;;0.5;0.5;;;;;;;13.2;100.0;101700;;;;
2022/05/21 02:25:00;;;;;;;0.5;0.5;;;;;;;13.3;100.0;101690;;;;
2022/05/21 02:26:00;;;;;;;0.5;0.5;;;;;;;13.3;100.0;101690;;;;
2022/05/21 02:27:00;;;;;;;0.5;0.5;;;;;;;13.2;100.0;101690;;;;
2022/05/21 02:28:00;;;;;;;0.5;0.5;;;;;;;13.2;100.0;101690;;;;
2022/05/21 02:29:00;;;;;;;0.5;0.5;;;;;;;13.4;100.0;101690;;;;
2022/05/21 02:30:00;;;;;;;0.5;0.5;;;;;;;13.4;100.0;101690;;;;
2022/05/21 02:31:00;;;;;;;0.5;0.5;;;;;;;13.2;100.0;101690;;;;
2022/05/21 02:32:00;;;;;;;0.5;0.5;;;;;;;13.2;100.0;101690;;;;
2022/05/21 02:33:00;;;;;;;0.5;0.5;;;;;;;13.3;100.0;101690;;;;
2022/05/21 02:34:00;;;;;;;0.5;0.5;;;;;;;13.3;100.0;101690;;;;
2022/05/21 02:35:00;;;;;;;0.5;0.5;;;;;;;13.2;100.0;101690;;;;
2022/05/21 02:36:00;;;;;;;1.8;0.9;;;;;;;13.2;100.0;101690;;;;
2022/05/21 02:40:00;;;;;;;1.8;0.9;;;;;;;13.2;100.0;101690;;;;
2022/05/21 02:41:00;;;;;;;1.8;0.9;;;;;;;13.3;100.0;101690;;;;
2022/05/21 02:42:00;;;;;;;1.8;0.9;;;;;;;13.3;100.0;101690;;;;
2022/05/21 02:43:00;;;;;;;1.8;0.9;;;;;;;13.3;100.0;101690;;;;
2022/05/21 02:44:00;;;;;;;1.8;0.9;;;;;;;13.3;100.0;101690;;;;
2022/05/21 02:45:00;;;;;;;1.8;0.9;;;;;;;13.1;100.0;101690;;;;
2022/05/21 02:46:00;;;;;;;1.8;0.9;;;;;;;13.1;100.0;101690;;;;
2022/05/21 02:47:00;;;;;;;1.8;0.9;;;;;;;13.1;100.0;101690;;;;
2022/05/21 02:48:00;;;;;;;1.8;0.9;;;;;;;13.1;100.0;101690;;;;
2022/05/21 02:49:00;;;;;;;1.8;0.9;;;;;;;13.1;100.0;101690;;;;
2022/05/21 02:50:00;;;;;;;1.8;0.9;;;;;;;13.1;100.0;101690;;;;
2022/05/21 02:51:00;;;;;;;1.8;0.9;;;;;;;13.2;100.0;101690;;;;
2022/05/21 02:52:00;;;;;;;1.8;0.9;;;;;;;13.2;100.0;101690;;;;
2022/05/21 02:53:01;;;;;;;1.8;0.9;;;;;;;13.3;100.0;101690;;;;
2022/05/21 02:54:00;;;;;;;1.8;0.9;;;;;;;13.3;100.0;101690;;;;
2022/05/21 02:55:00;;;;;;;0.7;0.7;;;;;;;13.3;100.0;101690;;;;
2022/05/21 02:56:04;;;;;;;0.7;0.7;;;;;;;13.3;100.0;101690;;;;
2022/05/21 02:57:00;;;;;;;0.7;0.7;;;;;;;13.3;100.0;101690;;;;
2022/05/21 02:58:00;;;;;;;0.7;0.7;;;;;;;13.3;100.0;101690;;;;
2022/05/21 02:59:00;;;;;;;0.7;0.7;;;;;;;13.3;100.0;101690;;;;
2022/05/21 03:00:00;;;;;;;0.7;0.7;;;;;;;13.3;100.0;101690;;;;
2022/05/21 03:01:00;;;;;;;0.7;0.7;;;;;;;13.3;100.0;101690;;;;
2022/05/21 03:02:00;;;;;;;0.7;0.7;;;;;;;13.3;100.0;101690;;;;
2022/05/21 03:03:00;;;;;;;0.7;0.7;;;;;;;13.3;100.0;101690;;;;
2022/05/21 03:04:00;;;;;;;0.7;0.7;;;;;;;13.3;100.0;101690;;;;
2022/05/21 03:05:00;;;;;;;0.7;0.7;;;;;;;13.3;100.0;101690;;;;
2022/05/21 03:06:00;;;;;;;0.7;0.7;;;;;;;13.3;100.0;101690;;;;
2022/05/21 03:07:00;;;;;;;0.7;0.7;;;;;;;13.3;100.0;101690;;;;
2022/05/21 03:08:00;;;;;;;0.7;0.7;;;;;;;13.3;100.0;101690;;;;
2022/05/21 03:11:01;;;;;;;0.7;0.7;;;;;;;13.2;100.0;101690;;;;
2022/05/21 03:12:00;;;;;;;0.7;0.7;;;;;;;13.2;100.0;101690;;;;
2022/05/21 03:13:01;;;;;;;0.7;0.7;;;;;;;13.4;100.0;101690;;;;
2022/05/21 03:14:00;;;;;;;0.7;0.7;;;;;;;13.4;100.0;101690;;;;
2022/05/21 03:15:00;;;;;;;0.5;0.5;;;;;;;13.3;100.0;101700;;;;
2022/05/21 03:16:00;;;;;;;0.5;0.5;;;;;;;13.3;100.0;101700;;;;
2022/05/21 03:17:00;;;;;;;0.5;0.5;;;;;;;13.3;100.0;101700;;;;
2022/05/21 03:18:02;;;;;;;0.5;0.5;;;;;;;13.3;100.0;101700;;;;
2022/05/21 03:19:00;;;;;;;0.5;0.5;;;;;;;13.3;100.0;101700;;;;
2022/05/21 03:20:00;;;;;;;0.5;0.5;;;;;;;13.3;100.0;101700;;;;
2022/05/21 03:21:00;;;;;;;0.5;0.5;;;;;;;13.2;100.0;101690;;;;
2022/05/21 03:22:00;;;;;;;0.5;0.5;;;;;;;13.2;100.0;101690;;;;
2022/05/21 03:23:00;;;;;;;0.5;0.5;;;;;;;13.3;100.0;101690;;;;
2022/05/21 03:24:00;;;;;;;0.5;0.5;;;;;;;13.3;100.0;101690;;;;
2022/05/21 03:25:00;;;;;;;0.5;0.5;;;;;;;13.2;100.0;101680;;;;
2022/05/21 03:26:00;;;;;;;0.5;0.5;;;;;;;13.2;100.0;101680;;;;
2022/05/21 03:27:00;;;;;;;0.5;0.5;;;;;;;13.3;100.0;101690;;;;
2022/05/21 03:28:00;;;;;;;0.5;0.5;;;;;;;13.3;100.0;101690;;;;
2022/05/21 03:29:00;;;;;;;0.5;0.5;;;;;;;13.3;100.0;101680;;;;
2022/05/21 03:30:01;;;;;;;0.5;0.5;;;;;;;13.3;100.0;101680;;;;
2022/05/21 03:31:00;;;;;;;0.5;0.5;;;;;;;13.3;100.0;101690;;;;
2022/05/21 03:32:00;;;;;;;0.5;0.5;;;;;;;13.3;100.0;101690;;;;
2022/05/21 03:33:00;;;;;;;0.5;0.5;;;;;;;13.2;100.0;101690;;;;
2022/05/21 03:34:00;;;;;;;0.5;0.5;;;;;;;13.2;100.0;101690;;;;
2022/05/21 03:35:00;;;;;;;0.7;0.7;;;;;;;13.3;100.0;101690;;;;
2022/05/21 03:36:00;;;;;;;0.7;0.7;;;;;;;13.3;100.0;101690;;;;
2022/05/21 03:37:00;;;;;;;0.7;0.7;;;;;;;13.3;100.0;101690;;;;
2022/05/21 03:38:00;;;;;;;0.7;0.7;;;;;;;13.3;100.0;101690;;;;
2022/05/21 03:39:00;;;;;;;0.7;0.7;;;;;;;13.4;100.0;101690;;;;
2022/05/21 03:40:00;;;;;;;0.7;0.7;;;;;;;13.4;100.0;101690;;;;
2022/05/21 03:41:00;;;;;;;0.7;0.7;;;;;;;13.3;100.0;101700;;;;
2022/05/21 03:42:00;;;;;;;0.7;0.7;;;;;;;13.3;100.0;101700;;;;
2022/05/21 03:43:00;;;;;;;0.7;0.7;;;;;;;13.4;100.0;101690;;;;
2022/05/21 03:44:00;;;;;;;0.7;0.7;;;;;;;13.4;100.0;101690;;;;
2022/05/21 03:45:00;;;;;;;0.7;0.7;;;;;;;13.3;100.0;101700;;;;
2022/05/21 03:46:00;;;;;;;0.7;0.7;;;;;;;13.3;100.0;101700;;;;
2022/05/21 03:47:00;;;;;;;0.7;0.7;;;;;;;13.3;100.0;101690;;;;
2022/05/21 03:48:00;;;;;;;0.7;0.7;;;;;;;13.3;100.0;101690;;;;
2022/05/21 03:49:00;;;;;;;0.7;0.7;;;;;;;13.4;100.0;101690;;;;
2022/05/21 03:50:00;;;;;;;0.7;0.7;;;;;;;13.4;100.0;101690;;;;
2022/05/21 03:51:00;;;;;;;0.7;0.7;;;;;;;13.3;100.0;101690;;;;
2022/05/21 03:52:00;;;;;;;0.7;0.7;;;;;;;13.3;100.0;101690;;;;
2022/05/21 03:53:00;;;;;;;0.7;0.7;;;;;;;13.3;100.0;101690;;;;
2022/05/21 03:54:00;;;;;;;0.7;0.7;;;;;;;13.3;100.0;101690;;;;
2022/05/21 03:55:00;;;;;;;0.8;0.8;;;;;;;13.3;100.0;101690;;;;
2022/05/21 03:56:00;;;;;;;0.8;0.8;;;;;;;13.3;100.0;101690;;;;
2022/05/21 03:57:00;;;;;;;0.8;0.8;;;;;;;13.3;100.0;101700;;;;
2022/05/21 03:58:00;;;;;;;0.8;0.8;;;;;;;13.3;100.0;101700;;;;
2022/05/21 03:59:00;;;;;;;0.8;0.8;;;;;;;13.3;100.0;101700;;;;
2022/05/21 04:00:00;;;;;;;0.8;0.8;;;;;;;13.3;100.0;101700;;;;
2022/05/21 04:01:00;;;;;;;0.8;0.8;;;;;;;13.4;100.0;101700;;;;
2022/05/21 04:02:01;;;;;;;0.8;0.8;;;;;;;13.4;100.0;101700;;;;
2022/05/21 04:03:01;;;;;;;0.8;0.8;;;;;;;13.4;100.0;101700;;;;
2022/05/21 04:04:00;;;;;;;0.8;0.8;;;;;;;13.4;100.0;101700;;;;
2022/05/21 04:05:00;;;;;;;0.8;0.8;;;;;;;13.4;100.0;101700;;;;
2022/05/21 04:06:00;;;;;;;0.8;0.8;;;;;;;13.4;100.0;101700;;;;
2022/05/21 04:07:00;;;;;;;0.8;0.8;;;;;;;13.4;100.0;101700;;;;
2022/05/21 04:08:00;;;;;;;0.8;0.8;;;;;;;13.4;100.0;101700;;;;
2022/05/21 04:09:00;;;;;;;0.8;0.8;;;;;;;13.4;100.0;101700;;;;
2022/05/21 04:10:00;;;;;;;0.8;0.8;;;;;;;13.4;100.0;101700;;;;
2022/05/21 04:11:01;;;;;;;0.8;0.8;;;;;;;13.4;100.0;101700;;;;
2022/05/21 04:12:00;;;;;;;0.8;0.8;;;;;;;13.4;100.0;101700;;;;
2022/05/21 04:13:00;;;;;;;0.8;0.8;;;;;;;13.4;100.0;101710;;;;
2022/05/21 04:14:00;;;;;;;0.8;0.8;;;;;;;13.4;100.0;101710;;;;
2022/05/21 04:15:00;;;;;;;0.9;0.9;;;;;;;13.3;100.0;101710;;;;
2022/05/21 04:16:00;;;;;;;0.9;0.9;;;;;;;13.3;100.0;101710;;;;
2022/05/21 04:17:01;;;;;;;0.9;0.9;;;;;;;13.3;100.0;101710;;;;
2022/05/21 04:18:00;;;;;;;0.9;0.9;;;;;;;13.3;100.0;101710;;;;
2022/05/21 04:19:01;;;;;;;0.9;0.9;;;;;;;13.4;100.0;101710;;;;
2022/05/21 04:20:00;;;;;;;0.9;0.9;;;;;;;13.4;100.0;101710;;;;
2022/05/21 04:21:00;;;;;;;0.9;0.9;;;;;;;13.5;100.0;101710;;;;
2022/05/21 04:22:00;;;;;;;0.9;0.9;;;;;;;13.5;100.0;101710;;;;
2022/05/21 04:23:00;;;;;;;0.9;0.9;;;;;;;13.5;100.0;101720;;;;
2022/05/21 04:24:00;;;;;;;0.9;0.9;;;;;;;13.5;100.0;101720;;;;
2022/05/21 04:25:00;;;;;;;0.9;0.9;;;;;;;13.3;100.0;101720;;;;
2022/05/21 04:26:00;;;;;;;0.9;0.9;;;;;;;13.3;100.0;101720;;;;
2022/05/21 04:27:00;;;;;;;0.9;0.9;;;;;;;13.3;100.0;101720;;;;
2022/05/21 04:28:00;;;;;;;0.9;0.9;;;;;;;13.3;100.0;101720;;;;
2022/05/21 04:29:00;;;;;;;0.9;0.9;;;;;;;13.4;100.0;101720;;;;
2022/05/21 04:30:00;;;;;;;0.9;0.9;;;;;;;13.4;100.0;101720;;;;
2022/05/21 04:31:00;;;;;;;0.9;0.9;;;;;;;13.5;100.0;101720;;;;
2022/05/21 04:32:00;;;;;;;0.9;0.9;;;;;;;13.5;100.0;101720;;;;
2022/05/21 04:33:00;;;;;;;0.9;0.9;;;;;;;13.5;100.0;101720;;;;
2022/05/21 04:34:00;;;;;;;0.9;0.9;;;;;;;13.5;100.0;101720;;;;
2022/05/21 04:35:00;;;;;;;2.7;2.0;;;;;;;13.5;100.0;101720;;;;
2022/05/21 04:37:02;;;;;;;2.7;2.0;;;;;;;13.5;100.0;101720;;;;
2022/05/21 04:38:00;;;;;;;2.7;2.0;;;;;;;13.5;100.0;101720;;;;
2022/05/21 04:39:00;;;;;;;2.7;2.0;;;;;;;13.5;100.0;101730;;;;
2022/05/21 04:40:00;;;;;;;2.7;2.0;;;;;;;13.5;100.0;101730;;;;
2022/05/21 04:41:00;;;;;;;2.7;2.0;;;;;;;13.6;100.0;101730;;;;
2022/05/21 04:42:00;;;;;;;2.7;2.0;;;;;;;13.6;100.0;101730;;;;
2022/05/21 04:43:00;;;;;;;2.7;2.0;;;;;;;13.6;100.0;101730;;;;
2022/05/21 04:44:00;;;;;;;2.7;2.0;;;;;;;13.6;100.0;101730;;;;
2022/05/21 04:45:00;;;;;;;2.7;2.0;;;;;;;13.6;100.0;101730;;;;
2022/05/21 04:46:00;;;;;;;2.7;2.0;;;;;;;13.6;100.0;101730;;;;
2022/05/21 04:47:00;;;;;;;2.7;2.0;;;;;;;13.6;100.0;101730;;;;
2022/05/21 04:48:03;;;;;;;2.7;2.0;;;;;;;13.6;100.0;101730;;;;
2022/05/21 04:49:05;;;;;;;2.7;2.0;;;;;;;13.6;100.0;101730;;;;
2022/05/21 04:50:00;;;;;;;2.7;2.0;;;;;;;13.6;100.0;101730;;;;
2022/05/21 04:51:01;;;;;;;2.7;2.0;;;;;;;13.7;100.0;101740;;;;
2022/05/21 04:52:01;;;;;;;2.7;2.0;;;;;;;13.7;100.0;101740;;;;
2022/05/21 04:53:00;;;;;;;2.7;2.0;;;;;;;13.8;100.0;101740;;;;
2022/05/21 04:54:00;;;;;;;2.7;2.0;;;;;;;13.8;100.0;101740;;;;
2022/05/21 04:55:01;;;;;;;0.7;0.7;;;;;;;13.7;100.0;101740;;;;
2022/05/21 04:56:01;;;;;;;0.7;0.7;;;;;;;13.7;100.0;101740;;;;
2022/05/21 04:57:00;;;;;;;0.7;0.7;;;;;;;13.7;100.0;101740;;;;
2022/05/21 04:58:00;;;;;;;0.7;0.7;;;;;;;13.7;100.0;101740;;;;
2022/05/21 04:59:00;;;;;;;0.7;0.7;;;;;;;13.8;100.0;101740;;;;
2022/05/21 05:00:00;;;;;;;0.7;0.7;;;;;;;13.8;100.0;101740;;;;
2022/05/21 05:01:02;;;;;;;0.7;0.7;;;;;;;13.8;100.0;101740;;;;
2022/05/21 05:02:00;;;;;;;0.7;0.7;;;;;;;13.8;100.0;101740;;;;
2022/05/21 05:03:00;;;;;;;0.7;0.7;;;;;;;13.8;100.0;101740;;;;
2022/05/21 05:04:00;;;;;;;0.7;0.7;;;;;;;13.8;100.0;101740;;;;
2022/05/21 05:05:00;;;;;;;0.7;0.7;;;;;;;13.8;100.0;101740;;;;
2022/05/21 05:06:06;;;;;;;0.7;0.7;;;;;;;13.8;100.0;101740;;;;
2022/05/21 05:07:04;;;;;;;0.7;0.7;;;;;;;13.8;100.0;101750;;;;
2022/05/21 05:08:01;;;;;;;0.7;0.7;;;;;;;13.8;100.0;101750;;;;
2022/05/21 05:09:00;;;;;;;0.7;0.7;;;;;;;13.6;100.0;101750;;;;
2022/05/21 05:10:00;;;;;;;0.7;0.7;;;;;;;13.6;100.0;101750;;;;
2022/05/21 05:11:00;;;;;;;0.7;0.7;;;;;;;13.7;100.0;101750;;;;
2022/05/21 05:12:00;;;;;;;0.7;0.7;;;;;;;13.7;100.0;101750;;;;
2022/05/21 05:13:00;;;;;;;0.7;0.7;;;;;;;13.8;100.0;101740;;;;
2022/05/21 05:14:00;;;;;;;0.7;0.7;;;;;;;13.8;100.0;101740;;;;
2022/05/21 05:15:00;;;;;;;1.4;0.8;;;;;;;13.8;100.0;101750;;;;
2022/05/21 05:16:00;;;;;;;1.4;0.8;;;;;;;13.8;100.0;101750;;;;
2022/05/21 05:17:00;;;;;;;1.4;0.8;;;;;;;13.8;100.0;101760;;;;
2022/05/21 05:18:00;;;;;;;1.4;0.8;;;;;;;13.8;100.0;101760;;;;
2022/05/21 05:19:00;;;;;;;1.4;0.8;;;;;;;14.0;100.0;101750;;;;
2022/05/21 05:20:01;;;;;;;1.4;0.8;;;;;;;14.0;100.0;101750;;;;
2022/05/21 05:21:01;;;;;;;1.4;0.8;;;;;;;14.0;100.0;101750;;;;
2022/05/21 05:22:00;;;;;;;1.4;0.8;;;;;;;14.0;100.0;101750;;;;
2022/05/21 05:23:00;;;;;;;1.4;0.8;;;;;;;14.0;100.0;101760;;;;
2022/05/21 05:24:00;;;;;;;1.4;0.8;;;;;;;14.0;100.0;101760;;;;
2022/05/21 05:25:04;;;;;;;1.4;0.8;;;;;;;14.1;100.0;101760;;;;
2022/05/21 05:26:00;;;;;;;1.4;0.8;;;;;;;14.1;100.0;101760;;;;
2022/05/21 05:27:00;;;;;;;1.4;0.8;;;;;;;14.0;100.0;101760;;;;
2022/05/21 05:28:00;;;;;;;1.4;0.8;;;;;;;14.0;100.0;101760;;;;
2022/05/21 05:29:00;;;;;;;1.4;0.8;;;;;;;14.1;100.0;101770;;;;
2022/05/21 05:30:01;;;;;;;1.4;0.8;;;;;;;14.1;100.0;101770;;;;
2022/05/21 05:31:00;;;;;;;1.4;0.8;;;;;;;14.0;100.0;101770;;;;
2022/05/21 05:32:00;;;;;;;1.4;0.8;;;;;;;14.0;100.0;101770;;;;
2022/05/21 05:33:00;;;;;;;1.4;0.8;;;;;;;14.1;100.0;101770;;;;
2022/05/21 05:34:00;;;;;;;1.4;0.8;;;;;;;14.1;100.0;101770;;;;
2022/05/21 05:35:00;;;;;;;0.6;0.6;;;;;;;14.2;100.0;101770;;;;
2022/05/21 05:36:00;;;;;;;0.6;0.6;;;;;;;14.2;100.0;101770;;;;
2022/05/21 05:37:01;;;;;;;0.6;0.6;;;;;;;14.0;100.0;101770;;;;
2022/05/21 05:38:03;;;;;;;0.6;0.6;;;;;;;14.0;100.0;101770;;;;
2022/05/21 05:39:00;;;;;;;0.6;0.6;;;;;;;14.0;100.0;101770;;;;
2022/05/21 05:40:00;;;;;;;0.6;0.6;;;;;;;14.0;100.0;101770;;;;
2022/05/21 05:41:01;;;;;;;0.6;0.6;;;;;;;14.2;100.0;101770;;;;
2022/05/21 05:42:02;;;;;;;0.6;0.6;;;;;;;14.2;100.0;101770;;;;
2022/05/21 05:43:01;;;;;;;0.6;0.6;;;;;;;14.1;100.0;101770;;;;
2022/05/21 05:44:00;;;;;;;0.6;0.6;;;;;;;14.1;100.0;101770;;;;
2022/05/21 05:45:00;;;;;;;0.6;0.6;;;;;;;14.1;100.0;101780;;;;
2022/05/21 05:46:00;;;;;;;0.6;0.6;;;;;;;14.1;100.0;101780;;;;
2022/05/21 05:47:00;;;;;;;0.6;0.6;;;;;;;14.2;100.0;101780;;;;
2022/05/21 05:48:00;;;;;;;0.6;0.6;;;;;;;14.2;100.0;101780;;;;
2022/05/21 05:49:00;;;;;;;0.6;0.6;;;;;;;14.1;100.0;101780;;;;
2022/05/21 05:50:00;;;;;;;0.6;0.6;;;;;;;14.1;100.0;101780;;;;
2022/05/21 05:51:02;;;;;;;0.6;0.6;;;;;;;14.1;100.0;101780;;;;
2022/05/21 05:52:00;;;;;;;0.6;0.6;;;;;;;14.1;100.0;101780;;;;
2022/05/21 05:53:02;;;;;;;0.6;0.6;;;;;;;14.3;100.0;101780;;;;
2022/05/21 05:54:07;;;;;;;0.6;0.6;;;;;;;14.3;100.0;101780;;;;
2022/05/21 05:55:00;;;;;;;0.7;0.7;;;;;;;14.2;100.0;101780;;;;
2022/05/21 05:56:00;;;;;;;0.7;0.7;;;;;;;14.2;100.0;101780;;;;
2022/05/21 05:57:00;;;;;;;0.7;0.7;;;;;;;14.4;100.0;101770;;;;
2022/05/21 05:59:48;;;;;;;0.7;0.7;;;;;;;14.4;100.0;101770;;;;
2022/05/21 06:00:00;;;;;;;0.7;0.7;;;;;;;14.4;100.0;101770;;;;
2022/05/21 06:01:00;;;;;;;0.7;0.7;;;;;;;14.3;100.0;101770;;;;
2022/05/21 06:03:01;;;;;;;0.7;0.7;;;;;;;14.4;100.0;101770;;;;
2022/05/21 06:04:00;;;;;;;0.7;0.7;;;;;;;14.4;100.0;101770;;;;
2022/05/21 06:05:00;;;;;;;0.7;0.7;;;;;;;14.3;100.0;101770;;;;
2022/05/21 06:06:00;;;;;;;0.7;0.7;;;;;;;14.3;100.0;101770;;;;
2022/05/21 06:07:00;;;;;;;0.7;0.7;;;;;;;14.3;100.0;101780;;;;
2022/05/21 06:08:02;;;;;;;0.7;0.7;;;;;;;14.3;100.0;101780;;;;
2022/05/21 06:09:00;;;;;;;0.7;0.7;;;;;;;14.3;100.0;101770;;;;
2022/05/21 06:10:08;;;;;;;0.7;0.7;;;;;;;14.3;100.0;101770;;;;
2022/05/21 06:11:00;;;;;;;0.7;0.7;;;;;;;14.5;100.0;101790;;;;
2022/05/21 06:14:00;;;;;;;0.7;0.7;;;;;;;14.6;100.0;101790;;;;
2022/05/21 06:15:00;;;;;;;0.4;0.4;;;;;;;14.7;100.0;101780;;;;
2022/05/21 06:17:00;;;;;;;0.4;0.4;;;;;;;14.8;100.0;101790;;;;
2022/05/21 06:18:05;;;;;;;0.4;0.4;;;;;;;14.8;100.0;101790;;;;
2022/05/21 06:19:00;;;;;;;0.4;0.4;;;;;;;14.8;100.0;101790;;;;
2022/05/21 06:20:00;;;;;;;0.4;0.4;;;;;;;14.8;100.0;101790;;;;
2022/05/21 06:21:01;;;;;;;0.4;0.4;;;;;;;14.9;100.0;101790;;;;
2022/05/21 06:22:01;;;;;;;0.4;0.4;;;;;;;14.9;100.0;101790;;;;
2022/05/21 06:23:00;;;;;;;0.4;0.4;;;;;;;14.9;100.0;101790;;;;
2022/05/21 06:24:00;;;;;;;0.4;0.4;;;;;;;14.9;100.0;101790;;;;
2022/05/21 06:25:00;;;;;;;0.4;0.4;;;;;;;14.9;100.0;101780;;;;
2022/05/21 06:26:00;;;;;;;0.4;0.4;;;;;;;14.9;100.0;101780;;;;
2022/05/21 06:27:00;;;;;;;0.4;0.4;;;;;;;15.0;100.0;101790;;;;
2022/05/21 06:28:00;;;;;;;0.4;0.4;;;;;;;15.0;100.0;101790;;;;
2022/05/21 06:29:00;;;;;;;0.4;0.4;;;;;;;15.1;100.0;101790;;;;
2022/05/21 06:30:00;;;;;;;0.4;0.4;;;;;;;15.1;100.0;101790;;;;
2022/05/21 06:31:00;;;;;;;0.4;0.4;;;;;;;15.1;100.0;101800;;;;
2022/05/21 06:32:00;;;;;;;0.4;0.4;;;;;;;15.1;100.0;101800;;;;
2022/05/21 06:33:10;;;;;;;0.4;0.4;;;;;;;15.1;100.0;101800;;;;
2022/05/21 06:34:00;;;;;;;0.4;0.4;;;;;;;15.1;100.0;101800;;;;
2022/05/21 06:35:02;;;;;;;0.8;0.8;;;;;;;15.1;100.0;101800;;;;
2022/05/21 06:36:02;;;;;;;0.8;0.8;;;;;;;15.1;100.0;101800;;;;
2022/05/21 06:37:08;;;;;;;0.8;0.8;;;;;;;15.1;100.0;101800;;;;